Airfield :
LOGIN :

Register | Disclaimer

   EN    FR    IT 

 










Legend :    VFR   Marginal VFR   IFR   Intensive IFR   Very Intensive IFR
Visi :
Ceiling :
>= 8 km
>= 3000ft
5 to 8 km
1000 to 3000 ft
1500m to 5 km
500 to 1000 ft
800 to 1500m
200 to 500 ft
< 800m
< 200 ft
Symbols :   Thunderstorms  Fog  Heavy snow  Heavy precipitations  Wind > 20 kt
SIGMETs :     Misc.  Thunderstorms  Icing  Turbulence  Mountain Waves  Volcanic Ashes






- Airport Elevation : 267 ft


EGDR - Culdrose Navy

CURRENT METAR :
  • 141850Z AUTO 02031KT 5000 // FEW017/// BKN023/// 06/05 Q1001

EXPIRED METARs :
  • 141750Z AUTO 02033G47KT 7000 // SCT018/// SCT029/// BKN060/// 06/05 Q1000
  • 141650Z AUTO 02033G46KT 7000 // FEW018/// BKN024/// 06/05 Q0999

TAF TAF EGDR
Valid from the 14 at 12:00 until the 14 at 21:00 UTC


141103Z 1412/1421 02025G45KT 9999 SCT020
TEMPO 1412/1418 6000 RA SCT010
PROB30
TEMPO 1412/1416 3000 +SHRAGS BKN008 BKN015CB
TEMPO 1418/1421 5000 -SHRA SCT012



MET'MAP, your aeronautical weather chart ! - Copyright ORBIFLY December 2007 - Disclaimer

ORBIFLY MET'MAP TEAM :

Programming & Development : Alexandra Zaïnal
Concept & Development : Baudouin d'Aumeries
Co-Development & Prog : Marc-Olivier Méhu
Technical & hardware support : Manuel Goepfert

Contact : metmap@orbifly.com




SOURCES & CREDITS :

   NOAA